createdAt,value
2019-04-21T00:01:50.701Z,99114.92
2019-04-21T00:04:32.158Z,99112.00
2019-04-21T00:07:08.706Z,99111.20
2019-04-21T00:09:42.402Z,99110.94
2019-04-21T00:12:07.502Z,99121.36
2019-04-21T00:14:29.093Z,99113.61
2019-04-21T00:16:55.240Z,99115.21
2019-04-21T00:19:35.408Z,99107.95
2019-04-21T00:22:17.816Z,99109.30
2019-04-21T00:24:44.386Z,99104.48
2019-04-21T00:27:15.984Z,99110.63
2019-04-21T00:29:50.112Z,99111.95
2019-04-21T00:32:14.833Z,99107.94
2019-04-21T00:34:28.432Z,99103.41
2019-04-21T00:37:08.521Z,99099.66
2019-04-21T00:42:13.984Z,99105.02
2019-04-21T00:44:35.550Z,99101.78
2019-04-21T00:47:14.041Z,99101.78
2019-04-21T00:49:43.155Z,99097.23
2019-04-21T00:57:51.874Z,99087.36
2019-04-21T01:00:20.373Z,99093.50
2019-04-21T01:02:52.547Z,99091.88
2019-04-21T01:05:18.583Z,99083.58
2019-04-21T01:07:42.362Z,99089.22
2019-04-21T01:10:05.264Z,99083.06
2019-04-21T01:12:44.442Z,99084.66
2019-04-21T01:15:18.599Z,99079.05
2019-04-21T01:18:26.201Z,99076.65
2019-04-21T01:20:55.390Z,99077.44
2019-04-21T01:23:23.697Z,99075.03
2019-04-21T01:26:09.196Z,99072.36
2019-04-21T01:28:36.225Z,99072.09
2019-04-21T01:31:08.847Z,99073.44
2019-04-21T01:33:38.520Z,99068.34
2019-04-21T01:36:06.679Z,99071.28
2019-04-21T01:38:40.120Z,99066.46
2019-04-21T01:41:09.937Z,99067.55
2019-04-21T01:43:33.305Z,99062.72
2019-04-21T01:46:00.657Z,99067.28
2019-04-21T01:48:33.295Z,99064.31
2019-04-21T01:51:03.324Z,99054.70
2019-04-21T01:53:42.463Z,99061.92
2019-04-21T01:56:46.565Z,99063.52
2019-04-21T01:59:07.008Z,99063.27
2019-04-21T02:01:46.232Z,99055.24
2019-04-21T02:04:24.546Z,99053.91
2019-04-21T02:06:44.416Z,99053.36
2019-04-21T02:09:10.146Z,99052.27
2019-04-21T02:11:50.858Z,99050.95
2019-04-21T02:14:17.487Z,99048.53
2019-04-21T02:16:40.432Z,99046.94
2019-04-21T02:19:06.631Z,99043.97
2019-04-21T02:21:36.592Z,99042.12
2019-04-21T02:24:22.275Z,99042.12
2019-04-21T02:26:42.990Z,99038.11
2019-04-21T02:29:15.806Z,99039.70
2019-04-21T02:31:44.726Z,99039.97
2019-04-21T02:36:58.614Z,99031.95
2019-04-21T02:41:51.695Z,99026.86
2019-04-21T02:46:50.420Z,99022.31
2019-04-21T02:49:30.844Z,99014.55
2019-04-21T02:51:51.004Z,99012.95
2019-04-21T02:56:48.867Z,99006.27
2019-04-21T02:59:17.142Z,99003.84
2019-04-21T03:07:32.429Z,98995.80
2019-04-21T03:12:17.923Z,98988.33
2019-04-21T03:19:50.065Z,98973.34
2019-04-21T03:22:20.966Z,98969.59
2019-04-21T03:25:04.449Z,98966.41
2019-04-21T03:27:46.519Z,98966.41
2019-04-21T03:29:54.404Z,98960.27
2019-04-21T03:32:50.384Z,98956.52
2019-04-21T03:37:19.200Z,98954.65
2019-04-21T03:39:44.936Z,98951.17
2019-04-21T03:42:29.933Z,98951.69
2019-04-21T03:44:45.609Z,98951.43
2019-04-21T03:47:18.852Z,98949.02
2019-04-21T04:00:42.117Z,98950.88
2019-04-21T04:03:42.155Z,98948.20
2019-04-21T04:06:13.697Z,98951.95
2019-04-21T04:11:29.466Z,98955.70
2019-04-21T04:13:56.323Z,98957.03
2019-04-21T04:16:19.731Z,98951.14
2019-04-21T04:18:57.905Z,98953.29
2019-04-21T04:21:20.794Z,98951.41
2019-04-21T04:24:00.863Z,98945.53
2019-04-21T04:28:54.272Z,98954.08
2019-04-21T04:31:30.124Z,98948.73
2019-04-21T04:36:33.869Z,98949.52
2019-04-21T04:47:16.749Z,98950.86
2019-04-21T04:49:49.651Z,98953.02
2019-04-21T04:57:25.380Z,98953.53
2019-04-21T04:59:47.845Z,98951.67
2019-04-21T05:07:16.936Z,98946.59
2019-04-21T05:09:50.436Z,98945.27
2019-04-21T05:12:11.284Z,98947.66
2019-04-21T05:14:46.704Z,98950.60
2019-04-21T05:17:31.092Z,98946.86
2019-04-21T05:20:04.858Z,98948.98
2019-04-21T05:24:39.953Z,98946.86
2019-04-21T05:27:28.180Z,98940.70
2019-04-21T05:30:07.278Z,98942.32
2019-04-21T05:32:53.608Z,98940.43
2019-04-21T05:35:39.176Z,98940.17
2019-04-21T05:38:18.861Z,98931.11
2019-04-21T05:40:39.902Z,98939.38
2019-04-21T05:43:15.356Z,98938.05
2019-04-21T05:45:47.646Z,98939.91
2019-04-21T05:48:28.346Z,98937.52
2019-04-21T05:50:54.133Z,98936.18
2019-04-21T05:53:29.542Z,98938.58
2019-04-21T05:55:57.122Z,98940.20
2019-04-21T05:58:22.826Z,98942.09
2019-04-21T06:01:15.388Z,98947.16
2019-04-21T06:03:24.718Z,98943.14
2019-04-21T06:06:00.269Z,98943.16
2019-04-21T06:08:23.621Z,98946.08
2019-04-21T06:10:52.330Z,98941.53
2019-04-21T06:13:31.945Z,98939.98
2019-04-21T06:15:56.989Z,98942.13
2019-04-21T06:18:27.236Z,98938.63
2019-04-21T06:20:47.726Z,98940.77
2019-04-21T06:23:19.076Z,98943.19
2019-04-21T06:28:21.063Z,98934.60
2019-04-21T06:31:08.053Z,98927.11
2019-04-21T06:33:16.856Z,98927.90
2019-04-21T06:36:25.974Z,98927.62
2019-04-21T06:39:00.321Z,98926.83
2019-04-21T06:41:27.805Z,98920.14
2019-04-21T06:43:59.815Z,98916.38
2019-04-21T06:46:25.569Z,98915.81
2019-04-21T06:48:49.717Z,98912.33
2019-04-21T06:51:22.513Z,98916.32
2019-04-21T06:53:54.525Z,98918.20
2019-04-21T06:56:13.735Z,98916.56
2019-04-21T06:58:42.877Z,98918.94
2019-04-21T07:01:17.193Z,98919.22
2019-04-21T07:03:49.313Z,98913.03
2019-04-21T07:06:15.761Z,98920.79
2019-04-21T07:11:08.468Z,98918.33
2019-04-21T07:13:41.550Z,98918.86
2019-04-21T07:16:12.183Z,98923.38
2019-04-21T07:18:45.070Z,98911.61
2019-04-21T07:21:07.923Z,98917.22
2019-04-21T07:23:36.884Z,98920.69
2019-04-21T07:26:05.800Z,98923.36
2019-04-21T07:28:38.896Z,98914.00
2019-04-21T07:31:14.042Z,98915.64
2019-04-21T07:36:06.465Z,98915.34
2019-04-21T07:38:27.406Z,98920.94
2019-04-21T07:40:56.756Z,98914.98
2019-04-21T07:43:30.026Z,98914.97
2019-04-21T07:45:58.836Z,98906.39
2019-04-21T07:48:44.658Z,98910.37
2019-04-21T07:51:27.181Z,98907.95
2019-04-21T07:56:09.359Z,98908.15
2019-04-21T07:59:00.179Z,98907.59
2019-04-21T08:01:24.296Z,98900.62
2019-04-21T08:03:56.990Z,98906.20
2019-04-21T08:06:20.724Z,98902.72
2019-04-21T08:08:50.996Z,98900.54
2019-04-21T08:11:16.337Z,98905.09
2019-04-21T08:13:44.925Z,98901.58
2019-04-21T08:16:20.117Z,98901.55
2019-04-21T08:18:50.201Z,98898.31
2019-04-21T08:21:15.451Z,98892.89
2019-04-21T08:23:43.163Z,98890.98
2019-04-21T08:26:07.713Z,98886.41
2019-04-21T08:28:47.507Z,98885.03
2019-04-21T08:31:14.347Z,98879.92
2019-04-21T08:36:17.748Z,98881.51
2019-04-21T08:52:29.483Z,98857.38
2019-04-21T08:54:47.058Z,98860.39
2019-04-21T08:57:34.074Z,98856.58
2019-04-21T09:00:05.046Z,98857.14
2019-04-21T09:02:46.699Z,98856.36
2019-04-21T09:05:14.123Z,98856.69
2019-04-21T09:07:47.567Z,98857.25
2019-04-21T09:10:09.734Z,98852.45
2019-04-21T09:12:44.850Z,98851.61
2019-04-21T09:15:08.333Z,98847.58
2019-04-21T09:17:32.852Z,98841.97
2019-04-21T09:20:13.815Z,98837.70
2019-04-21T09:22:38.239Z,98833.67
2019-04-21T09:25:01.492Z,98833.11
2019-04-21T09:27:35.529Z,98828.84
2019-04-21T09:29:53.945Z,98827.25
2019-04-21T09:32:21.717Z,98822.94
2019-04-21T09:34:47.350Z,98817.81
2019-04-21T09:37:26.850Z,98815.38
2019-04-21T09:39:48.433Z,98803.86
2019-04-21T09:42:13.598Z,98803.58
2019-04-21T09:44:45.781Z,98805.70
2019-04-21T09:47:12.606Z,98803.25
2019-04-21T09:49:41.885Z,98800.57
2019-04-21T09:52:18.853Z,98797.89
2019-04-21T09:54:48.229Z,98789.30
2019-04-21T09:57:19.992Z,98787.16
2019-04-21T09:59:43.511Z,98786.87
2019-04-21T10:02:16.183Z,98776.91
2019-04-21T10:04:38.103Z,98777.44
2019-04-21T10:07:06.821Z,98767.22
2019-04-21T10:09:35.588Z,98765.02
2019-04-21T10:12:03.153Z,98765.55
2019-04-21T10:14:30.945Z,98757.98
2019-04-21T10:17:17.267Z,98748.86
2019-04-21T10:19:44.435Z,98752.05
2019-04-21T10:22:12.652Z,98743.98
2019-04-21T10:24:40.521Z,98738.33
2019-04-21T10:27:09.027Z,98738.04
2019-04-21T10:29:42.506Z,98736.98
2019-04-21T10:32:05.909Z,98725.98
2019-04-21T10:34:33.420Z,98731.06
2019-04-21T10:37:01.218Z,98719.71
2019-04-21T10:39:29.422Z,98717.02
2019-04-21T10:41:57.272Z,98716.45
2019-04-21T10:44:25.211Z,98716.72
2019-04-21T10:46:54.495Z,98703.78
2019-04-21T10:49:22.536Z,98708.33
2019-04-21T10:51:50.826Z,98704.55
2019-04-21T10:54:18.030Z,98705.06
2019-04-21T10:56:46.244Z,98691.88
2019-04-21T10:59:16.151Z,98695.38
2019-04-21T11:01:45.167Z,98691.05
2019-04-21T11:04:23.112Z,98685.69
2019-04-21T11:06:46.464Z,98687.27
2019-04-21T11:09:14.009Z,98677.05
2019-04-21T11:11:44.614Z,98675.41
2019-04-21T11:14:10.682Z,98668.65
2019-04-21T11:16:37.679Z,98667.55
2019-04-21T11:19:06.194Z,98664.28
2019-04-21T11:21:34.525Z,98665.33
2019-04-21T11:24:01.997Z,98664.52
2019-04-21T11:26:31.800Z,98654.30
2019-04-21T11:28:59.122Z,98655.34
2019-04-21T11:31:27.189Z,98660.18
2019-04-21T11:33:55.399Z,98647.81
2019-04-21T11:36:22.624Z,98640.27
2019-04-21T11:39:08.381Z,98636.48
2019-04-21T11:41:25.993Z,98639.17
2019-04-21T11:43:53.246Z,98635.66
2019-04-21T11:46:20.537Z,98642.38
2019-04-21T11:48:48.334Z,98636.70
2019-04-21T11:51:15.541Z,98630.77
2019-04-21T11:53:43.126Z,98620.30
2019-04-21T11:56:10.285Z,98617.85
2019-04-21T11:58:37.391Z,98621.29
2019-04-21T12:01:05.892Z,98613.71
2019-04-21T12:03:33.619Z,98613.17
2019-04-21T12:06:01.845Z,98607.27
2019-04-21T12:08:35.104Z,98611.24
2019-04-21T12:10:57.972Z,98616.08
2019-04-21T12:13:24.987Z,98611.48
2019-04-21T12:15:52.811Z,98605.58
2019-04-21T12:18:21.995Z,98606.09
2019-04-21T12:20:51.617Z,98600.71
2019-04-21T12:23:19.001Z,98602.54
2019-04-21T12:25:49.452Z,98600.09
2019-04-21T12:28:17.389Z,98594.48
2019-04-21T12:30:47.380Z,98605.17
2019-04-21T12:33:20.206Z,98592.78
2019-04-21T12:35:48.211Z,98587.70
2019-04-21T12:38:19.791Z,98584.48
2019-04-21T12:40:46.556Z,98515.40
2019-04-21T12:43:14.741Z,98573.67
2019-04-21T12:45:42.346Z,98575.27
2019-04-21T12:48:10.403Z,98573.67
2019-04-21T12:50:37.509Z,98570.37
2019-04-21T12:53:05.385Z,98566.34
2019-04-21T12:55:38.022Z,98562.81
2019-04-21T12:58:01.836Z,98555.58
2019-04-21T13:00:29.035Z,98550.78
2019-04-21T13:02:56.187Z,98549.14
2019-04-21T13:05:23.179Z,98540.80
2019-04-21T13:07:51.224Z,98541.31
2019-04-21T13:10:20.230Z,98542.89
2019-04-21T13:12:48.139Z,98537.79
2019-04-21T13:15:15.715Z,98538.84
2019-04-21T13:17:45.614Z,98533.64
2019-04-21T13:20:12.669Z,98527.48
2019-04-21T13:22:40.090Z,98525.09
2019-04-21T13:25:07.629Z,98522.65
2019-04-21T13:27:36.450Z,98522.59
2019-04-21T13:30:06.328Z,98510.80
2019-04-21T13:32:33.615Z,98509.72
2019-04-21T13:35:01.247Z,98508.38
2019-04-21T13:37:29.740Z,98504.81
2019-04-21T13:40:35.998Z,98502.13
2019-04-21T13:42:54.984Z,98498.33
2019-04-21T13:45:18.329Z,98494.06
2019-04-21T13:47:46.518Z,98490.53
2019-04-21T13:50:15.310Z,98495.34
2019-04-21T13:52:42.743Z,98480.33
2019-04-21T13:55:09.952Z,98483.25
2019-04-21T13:57:38.707Z,98473.06
2019-04-21T14:00:05.929Z,98464.73
2019-04-21T14:02:34.335Z,98463.89
2019-04-21T14:05:01.616Z,98462.55
2019-04-21T14:07:30.168Z,98464.94
2019-04-21T14:10:02.551Z,98458.45
2019-04-21T14:12:27.454Z,98457.85
2019-04-21T14:14:54.847Z,98451.70
2019-04-21T14:17:22.500Z,98444.61
2019-04-21T14:19:50.961Z,98441.36
2019-04-21T14:22:20.222Z,98440.31
2019-04-21T14:24:47.998Z,98434.94
2019-04-21T14:27:16.340Z,98427.98
2019-04-21T14:29:43.930Z,98430.67
2019-04-21T14:32:11.070Z,98431.95
2019-04-21T14:34:39.698Z,98426.88
2019-04-21T14:37:08.690Z,98421.26
2019-04-21T14:39:49.755Z,98419.38
2019-04-21T14:42:06.444Z,98422.23
2019-04-21T14:44:33.918Z,98417.97
2019-04-21T14:47:16.842Z,98416.32
2019-04-21T14:50:22.382Z,98415.71
2019-04-21T14:53:07.883Z,98418.94
2019-04-21T14:55:37.270Z,98405.27
2019-04-21T14:58:07.274Z,98400.99
2019-04-21T15:00:53.960Z,98396.69
2019-04-21T15:03:21.654Z,98399.14
2019-04-21T15:05:49.397Z,98400.99
2019-04-21T15:08:17.268Z,98395.85
2019-04-21T15:10:45.205Z,98396.69
2019-04-21T15:13:14.031Z,98391.31
2019-04-21T15:15:43.698Z,98391.02
2019-04-21T15:18:12.499Z,98389.36
2019-04-21T15:20:40.493Z,98383.75
2019-04-21T15:23:08.345Z,98387.55
2019-04-21T15:25:36.246Z,98390.17
2019-04-21T15:28:03.667Z,98376.53
2019-04-21T15:30:32.335Z,98381.06
2019-04-21T15:33:00.519Z,98374.34
2019-04-21T15:35:28.978Z,98374.11
2019-04-21T15:37:58.027Z,98366.27
2019-04-21T15:40:38.670Z,98373.80
2019-04-21T15:42:54.762Z,98371.11
2019-04-21T15:45:21.819Z,98363.82
2019-04-21T15:47:49.974Z,98365.23
2019-04-21T15:50:19.493Z,98361.73
2019-04-21T15:52:47.653Z,98359.63
2019-04-21T15:55:21.134Z,98364.94
2019-04-21T15:57:58.624Z,98353.94
2019-04-21T16:00:36.404Z,98351.19
2019-04-21T16:03:04.611Z,98353.56
2019-04-21T16:05:32.956Z,98351.98
2019-04-21T16:08:00.346Z,98345.88
2019-04-21T16:10:40.216Z,98345.88
2019-04-21T16:12:58.110Z,98335.42
2019-04-21T16:15:26.302Z,98328.70
2019-04-21T16:17:53.392Z,98337.84
2019-04-21T16:20:21.853Z,98330.35
2019-04-21T16:22:50.317Z,98332.17
2019-04-21T16:25:21.025Z,98337.81
2019-04-21T16:27:48.113Z,98332.44
2019-04-21T16:30:15.619Z,98326.18
2019-04-21T16:32:43.975Z,98323.99
2019-04-21T16:35:14.346Z,98323.76
2019-04-21T16:37:41.677Z,98317.34
2019-04-21T16:40:09.522Z,98319.77
2019-04-21T16:42:38.314Z,98319.77
2019-04-21T16:45:07.179Z,98314.08
2019-04-21T16:47:35.872Z,98312.73
2019-04-21T16:50:05.566Z,98311.39
2019-04-21T16:52:38.353Z,98310.85
2019-04-21T16:55:25.146Z,98305.97
2019-04-21T16:58:04.561Z,98311.21
2019-04-21T17:00:34.800Z,98301.80
2019-04-21T17:02:56.683Z,98311.02
2019-04-21T17:05:24.534Z,98303.54
2019-04-21T17:07:52.870Z,98308.66
2019-04-21T17:10:20.568Z,98302.43
2019-04-21T17:12:48.107Z,98299.06
2019-04-21T17:15:32.366Z,98295.33
2019-04-21T17:18:05.977Z,98299.06
2019-04-21T17:20:30.052Z,98294.72
2019-04-21T17:22:43.841Z,98292.78
2019-04-21T17:25:11.459Z,98289.67
2019-04-21T17:27:38.968Z,98290.94
2019-04-21T17:30:08.494Z,98297.83
2019-04-21T17:32:42.428Z,98290.41
2019-04-21T17:35:06.003Z,98224.80
2019-04-21T17:37:34.116Z,98298.58
2019-04-21T17:40:04.833Z,98287.22
2019-04-21T17:42:39.785Z,98292.83
2019-04-21T17:44:59.511Z,98288.80
2019-04-21T17:47:38.419Z,98293.48
2019-04-21T17:50:25.568Z,98284.77
2019-04-21T17:53:00.794Z,98290.39
2019-04-21T17:55:29.838Z,98288.81
2019-04-21T17:58:11.661Z,98292.11
2019-04-21T18:01:09.523Z,98293.45
2019-04-21T18:03:25.139Z,98299.27
2019-04-21T18:05:42.102Z,98300.17
2019-04-21T18:08:19.225Z,98306.52
2019-04-21T18:10:40.176Z,98303.00
2019-04-21T18:13:01.406Z,98305.86
2019-04-21T18:15:40.227Z,98312.73
2019-04-21T18:17:52.399Z,98303.41
2019-04-21T18:20:23.907Z,98305.61
2019-04-21T18:22:59.032Z,98314.01
2019-04-21T18:25:44.424Z,98307.06
2019-04-21T18:27:58.697Z,98296.91
2019-04-21T18:30:52.303Z,98307.06
2019-04-21T18:33:25.387Z,98301.92
2019-04-21T18:36:22.627Z,98295.58
2019-04-21T18:39:21.873Z,98301.59
2019-04-21T18:42:03.704Z,98301.08
2019-04-21T18:44:42.561Z,98298.77
2019-04-21T18:47:29.003Z,98305.34
2019-04-21T18:49:56.403Z,98306.98
2019-04-21T18:52:45.740Z,98302.27
2019-04-21T18:55:16.027Z,98304.31
2019-04-21T18:57:37.316Z,98304.77
2019-04-21T18:59:59.475Z,98305.45
2019-04-21T19:02:31.726Z,98310.67
2019-04-21T19:05:04.384Z,98308.64
2019-04-21T19:07:45.446Z,98309.53
2019-04-21T19:10:22.671Z,98309.35
2019-04-21T19:13:16.218Z,98316.71
2019-04-21T19:15:07.405Z,98314.34
2019-04-21T19:20:18.053Z,98311.78
2019-04-21T19:22:38.699Z,98313.72
2019-04-21T19:25:09.715Z,98248.82
2019-04-21T19:27:36.626Z,98308.19
2019-04-21T19:32:35.957Z,98302.66
2019-04-21T19:34:50.388Z,98307.55
2019-04-21T19:37:21.947Z,98306.56
2019-04-21T19:39:58.906Z,98299.31
2019-04-21T19:42:25.463Z,98306.09
2019-04-21T19:45:00.447Z,98302.42
2019-04-21T19:47:36.764Z,98302.42
2019-04-21T19:50:01.505Z,98304.62
2019-04-21T19:52:25.539Z,98302.53
2019-04-21T19:54:44.628Z,98302.25
2019-04-21T19:57:09.212Z,98304.18
2019-04-21T19:59:42.678Z,98295.95
2019-04-21T20:02:06.932Z,98303.99
2019-04-21T20:04:42.822Z,98299.68
2019-04-21T20:07:21.101Z,98292.63
2019-04-21T20:09:50.814Z,98294.72
2019-04-21T20:12:18.691Z,98293.89
2019-04-21T20:14:57.645Z,98288.83
2019-04-21T20:17:16.442Z,98294.97
2019-04-21T20:19:30.102Z,98294.37
2019-04-21T20:21:57.131Z,98295.66
2019-04-21T20:24:28.389Z,98288.19
2019-04-21T20:27:02.225Z,98291.70
2019-04-21T20:29:44.563Z,98290.94
2019-04-21T20:32:19.123Z,98285.63
2019-04-21T20:34:41.416Z,98290.48
2019-04-21T20:37:12.776Z,98286.75
2019-04-21T20:39:24.168Z,98287.10
2019-04-21T20:42:01.714Z,98289.03
2019-04-21T20:44:37.136Z,98289.89
2019-04-21T20:46:59.114Z,98281.62
2019-04-21T20:49:27.064Z,98287.55
2019-04-21T20:52:14.088Z,98282.78
2019-04-21T20:54:31.716Z,98280.63
2019-04-21T20:57:02.755Z,98279.07
2019-04-21T20:59:24.828Z,98277.49
2019-04-21T21:02:01.673Z,98274.33
2019-04-21T21:04:25.477Z,98275.69
2019-04-21T21:07:01.668Z,98275.98
2019-04-21T21:09:25.338Z,98274.16
2019-04-21T21:12:11.363Z,98267.70
2019-04-21T21:14:28.091Z,98273.64
2019-04-21T21:17:00.102Z,98276.08
2019-04-21T21:19:29.086Z,98279.83
2019-04-21T21:21:49.979Z,98273.98
2019-04-21T21:24:21.902Z,98274.57
2019-04-21T21:26:53.196Z,98274.05
2019-04-21T21:29:23.851Z,98270.14
2019-04-21T21:31:59.529Z,98265.88
2019-04-21T21:34:21.392Z,98259.17
2019-04-21T21:36:50.556Z,98259.73
2019-04-21T21:39:15.452Z,98262.70
2019-04-21T21:41:34.516Z,98253.52
2019-04-21T21:44:05.801Z,98261.89
2019-04-21T21:46:44.205Z,98257.63
2019-04-21T21:49:07.466Z,98260.61
2019-04-21T21:51:39.326Z,98256.02
2019-04-21T21:53:57.079Z,98255.25
2019-04-21T21:56:24.735Z,98252.62
2019-04-21T21:58:53.540Z,98257.46
2019-04-21T22:01:36.518Z,98262.81
2019-04-21T22:04:01.229Z,98255.12
2019-04-21T22:06:24.025Z,98253.78
2019-04-21T22:08:52.263Z,98257.28
2019-04-21T22:11:20.113Z,98254.66
2019-04-21T22:13:56.699Z,98249.01
2019-04-21T22:16:19.271Z,98246.66
2019-04-21T22:19:06.894Z,98246.11
2019-04-21T22:21:36.519Z,98243.13
2019-04-21T22:23:54.912Z,98243.13
2019-04-21T22:26:13.554Z,98243.13
2019-04-21T22:28:40.797Z,98238.05
2019-04-21T22:31:15.441Z,98242.31
2019-04-21T22:33:40.279Z,98238.59
2019-04-21T22:36:23.293Z,98236.44
2019-04-21T22:38:50.971Z,98239.12
2019-04-21T22:41:14.393Z,98240.22
2019-04-21T22:43:41.534Z,98238.07
2019-04-21T22:46:05.181Z,98242.38
2019-04-21T22:48:34.583Z,98243.00
2019-04-21T22:51:02.986Z,98244.05
2019-04-21T22:53:37.435Z,98238.65
2019-04-21T22:56:07.381Z,98235.78
2019-04-21T22:58:34.034Z,98236.84
2019-04-21T23:01:01.902Z,98233.68
2019-04-21T23:03:30.345Z,98235.78
2019-04-21T23:06:07.415Z,98234.17
2019-04-21T23:08:36.963Z,98230.78
2019-04-21T23:11:06.485Z,98225.94
2019-04-21T23:13:33.173Z,98230.77
2019-04-21T23:16:06.146Z,98223.31
2019-04-21T23:18:46.372Z,98224.89
2019-04-21T23:21:16.352Z,98222.21
2019-04-21T23:23:59.587Z,98211.27
2019-04-21T23:26:28.086Z,98219.06
2019-04-21T23:28:57.095Z,98211.57
2019-04-21T23:31:29.090Z,98206.78
2019-04-21T23:33:42.021Z,98206.27
2019-04-21T23:36:16.914Z,98201.47
2019-04-21T23:38:46.231Z,98207.65
2019-04-21T23:41:13.270Z,98205.55
2019-04-21T23:43:44.827Z,98201.58
2019-04-21T23:46:20.334Z,98192.27
2019-04-21T23:49:03.796Z,98196.52
2019-04-21T23:51:32.421Z,98196.00
2019-04-21T23:53:47.252Z,98195.76
2019-04-21T23:56:23.234Z,98193.91
2019-04-21T23:58:56.325Z,98192.33
